Pagrindinis puslapis
METAR-TAF:

METAR-TAF

Oro uostai :

Thiruvananthapuram, Indija

platuma: 08-28N, ilguma: 076-57E, Aukštis: 4 m

Dabartinis oras

Ataskaita buvo paskelbta 18 minutes, ne 04:30 UTC
Vėjas 6 kt iš Vakarų/Šiaurės Vakarų
Temperatūra 30°C
Drėgmė 75%
Slėgis 1009 hPa
Matomumas: 6000 m
Išsisklaidę debesys ne aukštis 1500 ft
Mažai debesys ne aukštis 2500 ft, aukštai iškilę kamuoliniai debesys.

METAR: VOTV 140430Z 30006KT 6000 SCT015 FEW025TCU 30/25 Q1009 NOSIG

Laikas: 10:18 (04:48 UTC)

Prognozė

Ataskaita buvo paskelbta 2 valandos ir 48 minutes, ne 02:00 UTC
Prognozė galioja nuo 14 metu 03 UTC su 14 metu 12 UTC
Vėjas 5 kt iš Šiaurės/Šiaurės Vakarų
Matomumas: 4000 m
Išsisklaidę debesys ne aukštis 1500 ft
Su prošvaistėmis ne aukštis 8000 ft
rūkana
Tapsmas
nuo 14 metu 05 UTC su 14 metu 06 UTC
Vėjas 10 kt iš Šiaurės/Šiaurės Vakarų
Matomumas: 6000 m
Laikinai
nuo 14 metu 10 UTC su 14 metu 12 UTC
Matomumas: 5000 m
migla

TAF: VOTV 140200Z 1403/1412 33005KT 4000 BR SCT015 BKN080 BECMG 1405/1406 33010KT 6000 TEMPO 1410/1412 5000 HZ

Orai ataskaitas ir orų prognozės (METAR, TAF).

turimą stotys yra geltonos ir raudonos taškus žemėlapyje.

Perkelti pele per norėdami pamatyti stoties vardą.

Tada spustelėkite, norėdami matyti oro stebėjimo ir prognozės.

Norėdami pakeisti žemėlapį: spustelėkite ant žalios mygtukų su juodo kryžiaus žemyn,; žalią mygtuką su brūkšneliu, jei norite nutolinti; arba žalių rodyklių gretimoms žemėlapius.


METAR-TAF: